createdAt,value
2019-05-15T00:02:10.864Z,73.50
2019-05-15T00:04:42.208Z,73.70
2019-05-15T00:07:12.127Z,73.70
2019-05-15T00:09:42.081Z,73.50
2019-05-15T00:12:11.764Z,74.20
2019-05-15T00:14:41.866Z,74.90
2019-05-15T00:17:13.224Z,74.40
2019-05-15T00:19:43.129Z,73.90
2019-05-15T00:22:12.824Z,74.00
2019-05-15T00:24:42.636Z,73.50
2019-05-15T00:27:13.328Z,73.30
2019-05-15T00:29:43.166Z,72.70
2019-05-15T00:32:12.982Z,73.10
2019-05-15T00:34:42.711Z,72.90
2019-05-15T00:37:13.506Z,72.60
2019-05-15T00:39:43.211Z,72.40
2019-05-15T00:42:14.031Z,72.50
2019-05-15T00:44:43.789Z,72.30
2019-05-15T00:47:13.689Z,72.40
2019-05-15T00:49:43.272Z,72.90
2019-05-15T00:52:13.138Z,72.30
2019-05-15T00:54:42.858Z,71.70
2019-05-15T00:57:12.729Z,71.80
2019-05-15T00:59:42.910Z,71.60
2019-05-15T01:02:12.774Z,71.30
2019-05-15T01:04:42.529Z,71.30
2019-05-15T01:07:12.327Z,71.60
2019-05-15T01:09:42.060Z,70.90
2019-05-15T01:12:11.940Z,70.80
2019-05-15T01:14:41.870Z,70.70
2019-05-15T01:17:11.755Z,70.10
2019-05-15T01:19:41.616Z,70.50
2019-05-15T01:22:11.272Z,69.90
2019-05-15T01:24:41.031Z,69.30
2019-05-15T01:27:10.791Z,69.80
2019-05-15T01:29:44.749Z,69.30
2019-05-15T01:32:11.871Z,69.50
2019-05-15T01:34:41.671Z,69.80
2019-05-15T01:37:11.472Z,69.10
2019-05-15T01:39:41.280Z,69.10
2019-05-15T01:42:11.125Z,69.40
2019-05-15T01:44:40.952Z,69.00
2019-05-15T01:47:10.747Z,69.00
2019-05-15T01:49:41.574Z,68.90
2019-05-15T01:52:11.333Z,68.40
2019-05-15T01:54:41.095Z,68.40
2019-05-15T01:57:10.885Z,68.60
2019-05-15T01:59:53.899Z,68.70
2019-05-15T02:02:12.169Z,67.50
2019-05-15T02:04:42.011Z,68.20
2019-05-15T02:07:11.816Z,67.70
2019-05-15T02:09:41.602Z,67.90
2019-05-15T02:12:11.416Z,67.90
2019-05-15T02:14:41.220Z,67.90
2019-05-15T02:17:11.201Z,67.70
2019-05-15T02:19:41.031Z,67.00
2019-05-15T02:22:10.791Z,67.10
2019-05-15T02:24:40.555Z,66.80
2019-05-15T02:27:10.256Z,67.10
2019-05-15T02:29:39.992Z,66.90
2019-05-15T02:32:10.276Z,67.00
2019-05-15T02:34:40.030Z,66.70
2019-05-15T02:37:09.769Z,67.00
2019-05-15T02:39:39.500Z,66.40
2019-05-15T02:42:10.031Z,67.00
2019-05-15T02:44:40.318Z,66.40
2019-05-15T02:47:10.272Z,66.70
2019-05-15T02:49:40.071Z,66.80
2019-05-15T02:52:10.141Z,66.00
2019-05-15T02:54:40.319Z,65.60
2019-05-15T02:57:10.231Z,65.60
2019-05-15T02:59:40.062Z,65.40
2019-05-15T03:02:10.409Z,66.10
2019-05-15T03:04:40.378Z,65.10
2019-05-15T03:07:11.315Z,65.50
2019-05-15T03:09:41.181Z,65.80
2019-05-15T03:12:10.943Z,66.20
2019-05-15T03:14:41.011Z,64.90
2019-05-15T03:17:10.911Z,64.20
2019-05-15T03:19:40.733Z,64.00
2019-05-15T03:22:10.634Z,64.50
2019-05-15T03:24:40.603Z,64.80
2019-05-15T03:27:10.427Z,64.40
2019-05-15T03:29:40.606Z,64.10
2019-05-15T03:32:25.290Z,64.90
2019-05-15T03:34:47.275Z,64.50
2019-05-15T03:37:13.250Z,63.50
2019-05-15T03:39:46.894Z,62.10
2019-05-15T03:42:14.680Z,62.90
2019-05-15T03:44:44.415Z,63.00
2019-05-15T03:47:14.348Z,62.40
2019-05-15T03:49:44.245Z,62.40
2019-05-15T03:52:14.040Z,62.40
2019-05-15T03:54:43.885Z,62.00
2019-05-15T03:57:13.760Z,61.70
2019-05-15T03:59:43.672Z,61.00
2019-05-15T04:02:13.542Z,60.10
2019-05-15T04:04:43.347Z,61.20
2019-05-15T04:07:13.205Z,61.10
2019-05-15T04:09:43.071Z,60.60
2019-05-15T04:12:13.029Z,60.30
2019-05-15T04:14:42.951Z,60.40
2019-05-15T04:17:12.741Z,60.90
2019-05-15T04:19:42.628Z,60.50
2019-05-15T04:22:12.572Z,60.50
2019-05-15T04:24:42.941Z,59.70
2019-05-15T04:27:13.056Z,59.40
2019-05-15T04:29:43.162Z,59.60
2019-05-15T04:32:12.999Z,59.50
2019-05-15T04:34:42.821Z,58.50
2019-05-15T04:37:12.659Z,58.80
2019-05-15T04:39:42.469Z,57.70
2019-05-15T04:42:12.416Z,57.50
2019-05-15T04:44:42.317Z,56.80
2019-05-15T04:47:12.243Z,57.10
2019-05-15T04:49:42.049Z,57.40
2019-05-15T04:52:11.709Z,56.90
2019-05-15T04:54:41.433Z,55.90
2019-05-15T04:57:11.181Z,56.60
2019-05-15T04:59:40.983Z,57.00
2019-05-15T05:02:17.568Z,57.30
2019-05-15T05:04:42.388Z,57.10
2019-05-15T05:07:12.178Z,56.30
2019-05-15T05:09:41.790Z,56.90
2019-05-15T05:12:11.699Z,56.50
2019-05-15T05:14:41.585Z,55.40
2019-05-15T05:17:11.567Z,55.40
2019-05-15T05:19:41.336Z,55.60
2019-05-15T05:22:11.124Z,55.50
2019-05-15T05:24:40.967Z,55.60
2019-05-15T05:27:10.717Z,54.50
2019-05-15T05:29:40.575Z,55.10
2019-05-15T05:32:10.452Z,55.00
2019-05-15T05:34:40.318Z,53.60
2019-05-15T05:37:09.964Z,53.40
2019-05-15T05:39:40.696Z,52.90
2019-05-15T05:42:11.889Z,52.60
2019-05-15T05:44:42.774Z,53.10
2019-05-15T05:47:12.892Z,52.20
2019-05-15T05:49:43.560Z,52.20
2019-05-15T05:52:13.514Z,52.60
2019-05-15T05:54:44.380Z,52.80
2019-05-15T05:57:14.132Z,52.80
2019-05-15T05:59:44.017Z,52.30
2019-05-15T06:02:13.957Z,52.30
2019-05-15T06:04:43.633Z,52.40
2019-05-15T06:07:14.533Z,53.20
2019-05-15T06:09:44.467Z,53.30
2019-05-15T06:12:14.278Z,53.50
2019-05-15T06:14:44.058Z,52.80
2019-05-15T06:17:13.895Z,52.50
2019-05-15T06:19:43.639Z,52.60
2019-05-15T06:22:13.904Z,51.70
2019-05-15T06:24:43.720Z,52.00
2019-05-15T06:27:13.568Z,51.30
2019-05-15T06:29:43.416Z,52.30
2019-05-15T06:32:13.458Z,51.40
2019-05-15T06:34:43.252Z,51.50
2019-05-15T06:37:13.020Z,51.20
2019-05-15T06:39:42.826Z,51.70
2019-05-15T06:42:12.558Z,51.10
2019-05-15T06:44:42.448Z,51.10
2019-05-15T06:47:12.292Z,50.30
2019-05-15T06:49:42.104Z,51.00
2019-05-15T06:52:11.891Z,51.70
2019-05-15T06:54:41.618Z,50.30
2019-05-15T06:57:12.415Z,50.70
2019-05-15T06:59:42.437Z,50.60
2019-05-15T07:02:12.328Z,51.30
2019-05-15T07:04:42.237Z,50.90
2019-05-15T07:07:12.162Z,51.20
2019-05-15T07:09:41.999Z,50.80
2019-05-15T07:12:13.407Z,50.30
2019-05-15T07:14:43.211Z,50.40
2019-05-15T07:17:13.099Z,51.10
2019-05-15T07:19:43.004Z,51.70
2019-05-15T07:22:12.918Z,50.20
2019-05-15T07:24:42.730Z,50.90
2019-05-15T07:27:12.604Z,50.30
2019-05-15T07:29:42.476Z,50.40
2019-05-15T07:32:12.424Z,50.30
2019-05-15T07:34:42.224Z,49.20
2019-05-15T07:37:12.197Z,49.30
2019-05-15T07:39:42.023Z,48.40
2019-05-15T07:42:11.728Z,48.00
2019-05-15T07:44:41.529Z,47.50
2019-05-15T07:47:11.303Z,47.10
2019-05-15T07:49:41.241Z,47.30
2019-05-15T07:52:10.999Z,47.20
2019-05-15T07:54:40.932Z,46.60
2019-05-15T07:57:10.742Z,46.70
2019-05-15T07:59:40.523Z,44.70
2019-05-15T08:02:10.393Z,44.20
2019-05-15T08:04:40.299Z,43.50
2019-05-15T08:07:12.566Z,44.20
2019-05-15T08:09:42.409Z,42.80
2019-05-15T08:12:12.786Z,41.80
2019-05-15T08:14:42.904Z,41.20
2019-05-15T08:17:12.812Z,41.40
2019-05-15T08:19:42.585Z,41.10
2019-05-15T08:22:15.029Z,41.40
2019-05-15T08:24:43.884Z,40.30
2019-05-15T08:27:13.773Z,38.80
2019-05-15T08:29:43.582Z,37.40
2019-05-15T08:32:13.462Z,37.70
2019-05-15T08:34:44.203Z,38.30
2019-05-15T08:37:14.114Z,37.80
2019-05-15T08:39:43.697Z,35.10
2019-05-15T08:42:13.534Z,35.00
2019-05-15T08:44:42.990Z,35.70
2019-05-15T08:47:12.851Z,34.90
2019-05-15T08:49:42.685Z,35.10
2019-05-15T08:52:12.685Z,34.30
2019-05-15T08:54:42.385Z,34.50
2019-05-15T08:57:12.286Z,33.00
2019-05-15T08:59:42.709Z,32.00
2019-05-15T09:02:18.394Z,33.80
2019-05-15T09:04:57.910Z,33.00
2019-05-15T09:07:28.748Z,32.30
2019-05-15T09:09:59.639Z,31.80
2019-05-15T09:12:29.652Z,31.00
2019-05-15T09:14:59.476Z,31.40
2019-05-15T09:17:29.205Z,31.60
2019-05-15T09:19:58.962Z,32.20
2019-05-15T09:22:29.275Z,32.60
2019-05-15T09:24:59.134Z,31.20
2019-05-15T09:27:29.956Z,32.10
2019-05-15T09:29:59.938Z,32.30
2019-05-15T09:32:29.735Z,32.20
2019-05-15T09:34:59.562Z,32.50
2019-05-15T09:37:29.483Z,33.20
2019-05-15T09:39:59.399Z,33.20
2019-05-15T09:42:30.145Z,32.50
2019-05-15T09:45:01.627Z,33.10
2019-05-15T09:47:31.451Z,31.90
2019-05-15T09:50:01.491Z,31.20
2019-05-15T09:52:31.442Z,30.10
2019-05-15T09:55:08.621Z,30.80
2019-05-15T09:57:38.883Z,31.50
2019-05-15T10:00:10.127Z,29.00
2019-05-15T10:02:40.014Z,30.60
2019-05-15T10:05:11.747Z,30.30
2019-05-15T10:07:41.507Z,30.00
2019-05-15T10:10:11.600Z,29.40
2019-05-15T10:12:43.223Z,29.30
2019-05-15T10:15:13.846Z,29.90
2019-05-15T10:17:44.767Z,30.00
2019-05-15T10:20:15.040Z,31.90
2019-05-15T10:22:44.863Z,28.00
2019-05-15T10:25:15.025Z,26.70
2019-05-15T10:27:44.903Z,25.10
2019-05-15T10:30:15.011Z,26.00
2019-05-15T10:32:44.921Z,25.90
2019-05-15T10:35:25.652Z,26.70
2019-05-15T10:37:48.788Z,26.10
2019-05-15T10:40:20.344Z,26.50
2019-05-15T10:42:49.765Z,27.40
2019-05-15T10:45:20.262Z,28.70
2019-05-15T10:47:50.174Z,30.30
2019-05-15T10:50:20.440Z,31.30
2019-05-15T10:52:50.212Z,34.00
2019-05-15T10:55:20.161Z,34.00
2019-05-15T10:57:49.720Z,33.60
2019-05-15T11:00:20.195Z,35.50
2019-05-15T11:02:50.113Z,33.20
2019-05-15T11:05:20.356Z,35.60
2019-05-15T11:07:50.255Z,35.80
2019-05-15T11:10:21.529Z,36.10
2019-05-15T11:12:51.345Z,36.50
2019-05-15T11:15:21.495Z,36.70
2019-05-15T11:17:51.244Z,36.10
2019-05-15T11:20:21.128Z,36.70
2019-05-15T11:22:51.021Z,36.40
2019-05-15T11:25:21.199Z,37.60
2019-05-15T11:27:50.930Z,37.30
2019-05-15T11:30:20.983Z,37.70
2019-05-15T11:32:50.894Z,37.90
2019-05-15T11:35:20.823Z,37.60
2019-05-15T11:37:56.709Z,38.40
2019-05-15T11:40:22.305Z,38.50
2019-05-15T11:42:52.185Z,38.60
2019-05-15T11:45:22.090Z,38.60
2019-05-15T11:47:51.721Z,38.60
2019-05-15T11:50:21.922Z,38.80
2019-05-15T11:52:51.768Z,39.10
2019-05-15T11:55:21.629Z,39.00
2019-05-15T11:57:55.166Z,38.90
2019-05-15T12:00:27.148Z,38.80
2019-05-15T12:02:55.137Z,38.50
2019-05-15T12:05:25.012Z,39.10
2019-05-15T12:07:57.766Z,39.20
2019-05-15T12:10:28.918Z,39.00
2019-05-15T12:12:59.700Z,39.00
2019-05-15T12:15:29.348Z,38.60
2019-05-15T12:17:59.219Z,39.10
2019-05-15T12:20:30.251Z,39.20
2019-05-15T12:23:00.098Z,39.40
2019-05-15T12:25:31.948Z,38.60
2019-05-15T12:28:01.277Z,38.20
2019-05-15T12:30:31.170Z,38.00
2019-05-15T12:33:00.864Z,38.50
2019-05-15T12:35:30.598Z,38.80
2019-05-15T12:38:00.511Z,38.50
2019-05-15T13:00:42.147Z,36.50
2019-05-15T13:03:11.991Z,37.30
2019-05-15T13:05:48.582Z,37.00
2019-05-15T13:08:19.444Z,37.50
2019-05-15T13:10:49.445Z,37.70
2019-05-15T13:13:19.353Z,37.70
2019-05-15T13:15:49.133Z,37.80
2019-05-15T13:18:18.703Z,38.70
2019-05-15T13:20:49.617Z,38.60
2019-05-15T13:23:19.560Z,38.30
2019-05-15T13:25:49.501Z,38.40
2019-05-15T13:28:19.371Z,38.60
2019-05-15T13:30:49.187Z,39.10
2019-05-15T13:33:19.158Z,38.90
2019-05-15T13:35:49.045Z,39.20
2019-05-15T13:38:18.796Z,38.50
2019-05-15T13:40:48.762Z,38.30
2019-05-15T13:43:18.716Z,38.10
2019-05-15T13:45:49.189Z,38.70
2019-05-15T13:48:20.252Z,38.90
2019-05-15T13:50:50.180Z,39.50
2019-05-15T13:53:19.812Z,39.20
2019-05-15T13:55:49.595Z,39.40
2019-05-15T13:58:19.333Z,38.80
2019-05-15T14:00:49.413Z,39.00
2019-05-15T14:03:19.136Z,39.60
2019-05-15T14:05:49.851Z,39.50
2019-05-15T14:08:19.827Z,39.10
2019-05-15T14:10:49.770Z,38.30
2019-05-15T14:13:19.546Z,38.80
2019-05-15T14:15:49.411Z,39.20
2019-05-15T14:18:20.055Z,40.10
2019-05-15T14:20:50.124Z,40.30
2019-05-15T14:23:19.842Z,39.40
2019-05-15T14:25:49.840Z,39.60
2019-05-15T14:28:19.730Z,40.40
2019-05-15T14:30:49.534Z,40.30
2019-05-15T14:33:39.646Z,40.50
2019-05-15T14:36:09.555Z,41.10
2019-05-15T14:38:40.395Z,41.60
2019-05-15T14:41:10.205Z,40.70
2019-05-15T14:43:40.282Z,40.50
2019-05-15T14:46:10.083Z,40.70
2019-05-15T14:48:39.920Z,40.60
2019-05-15T14:51:09.694Z,40.70
2019-05-15T14:53:39.511Z,41.30
2019-05-15T14:56:09.229Z,40.60
2019-05-15T14:58:39.227Z,40.50
2019-05-15T15:01:12.597Z,40.50
2019-05-15T15:03:40.808Z,40.80
2019-05-15T15:06:10.647Z,41.30
2019-05-15T15:08:40.496Z,42.00
2019-05-15T15:11:10.478Z,41.70
2019-05-15T15:13:40.364Z,41.80
2019-05-15T15:16:10.264Z,41.10
2019-05-15T15:18:40.106Z,39.50
2019-05-15T15:21:09.771Z,39.30
2019-05-15T15:23:40.779Z,37.90
2019-05-15T15:26:10.658Z,38.90
2019-05-15T15:28:40.541Z,38.40
2019-05-15T15:31:10.339Z,39.20
2019-05-15T15:33:40.073Z,39.70
2019-05-15T15:36:09.996Z,40.70
2019-05-15T15:38:43.668Z,40.50
2019-05-15T15:41:12.193Z,40.80
2019-05-15T15:43:42.982Z,41.10
2019-05-15T15:46:12.777Z,41.00
2019-05-15T15:48:42.721Z,41.50
2019-05-15T15:51:12.581Z,41.50
2019-05-15T15:53:42.751Z,40.90
2019-05-15T15:56:12.576Z,41.10
2019-05-15T15:58:42.454Z,41.80
2019-05-15T16:01:12.259Z,42.20
2019-05-15T16:03:43.107Z,43.00
2019-05-15T16:06:12.936Z,43.10
2019-05-15T16:08:52.969Z,43.20
2019-05-15T16:11:14.300Z,42.90
2019-05-15T16:13:46.456Z,43.20
2019-05-15T16:16:17.931Z,43.40
2019-05-15T16:18:49.137Z,43.50
2019-05-15T16:21:19.422Z,43.50
2019-05-15T16:23:49.440Z,42.90
2019-05-15T16:26:19.603Z,43.50
2019-05-15T16:28:49.399Z,43.60
2019-05-15T16:31:19.279Z,44.00
2019-05-15T16:33:49.052Z,44.00
2019-05-15T16:36:19.060Z,43.10
2019-05-15T16:38:48.703Z,43.70
2019-05-15T16:41:18.631Z,43.40
2019-05-15T16:43:48.671Z,43.10
2019-05-15T16:46:19.189Z,43.20
2019-05-15T16:48:50.254Z,43.20
2019-05-15T16:51:20.263Z,43.20
2019-05-15T16:53:50.180Z,42.90
2019-05-15T16:56:19.817Z,43.30
2019-05-15T16:58:50.760Z,43.10
2019-05-15T17:01:20.665Z,43.60
2019-05-15T17:03:50.515Z,44.10
2019-05-15T17:06:20.634Z,44.10
2019-05-15T17:08:50.448Z,44.00
2019-05-15T17:11:20.309Z,43.80
2019-05-15T17:13:51.337Z,44.00
2019-05-15T17:16:20.948Z,44.70
2019-05-15T17:18:50.848Z,44.90
2019-05-15T17:21:20.860Z,45.40
2019-05-15T17:23:50.465Z,45.10
2019-05-15T17:26:20.210Z,45.50
2019-05-15T17:28:50.042Z,46.10
2019-05-15T17:31:20.016Z,45.50
2019-05-15T17:33:49.688Z,45.50
2019-05-15T17:36:19.699Z,46.20
2019-05-15T17:38:49.530Z,45.60
2019-05-15T17:41:20.216Z,45.50
2019-05-15T17:43:50.008Z,46.30
2019-05-15T17:46:19.878Z,46.10
2019-05-15T17:48:56.086Z,46.30
2019-05-15T17:51:21.165Z,46.90
2019-05-15T17:53:50.958Z,46.80
2019-05-15T17:56:20.728Z,46.30
2019-05-15T17:58:50.661Z,46.70
2019-05-15T18:01:20.627Z,47.10
2019-05-15T18:03:50.397Z,46.60
2019-05-15T18:06:20.636Z,47.00
2019-05-15T18:08:50.471Z,47.50
2019-05-15T18:11:20.172Z,47.60
2019-05-15T18:13:50.045Z,47.30
2019-05-15T18:16:19.914Z,47.00
2019-05-15T18:18:49.706Z,47.50
2019-05-15T18:21:20.588Z,47.50
2019-05-15T18:23:51.511Z,47.00
2019-05-15T18:26:21.349Z,47.30
2019-05-15T18:28:50.943Z,47.60
2019-05-15T18:31:20.833Z,48.30
2019-05-15T18:33:53.717Z,47.30
2019-05-15T18:36:23.043Z,48.00
2019-05-15T18:38:52.918Z,48.20
2019-05-15T18:41:22.803Z,48.80
2019-05-15T18:43:52.536Z,49.30
2019-05-15T18:46:23.290Z,49.30
2019-05-15T18:48:53.023Z,49.60
2019-05-15T18:51:23.029Z,49.40
2019-05-15T18:53:52.819Z,49.10
2019-05-15T18:56:22.675Z,49.40
2019-05-15T18:58:52.530Z,48.90
2019-05-15T19:01:23.498Z,48.70
2019-05-15T19:03:53.259Z,48.80
2019-05-15T19:06:23.522Z,48.80
2019-05-15T19:08:53.357Z,49.00
2019-05-15T19:11:24.229Z,49.20
2019-05-15T19:13:54.014Z,49.00
2019-05-15T19:16:23.822Z,49.20
2019-05-15T19:18:53.602Z,49.50
2019-05-15T19:21:23.403Z,49.60
2019-05-15T19:23:53.238Z,48.90
2019-05-15T19:26:22.944Z,49.20
2019-05-15T19:28:52.714Z,48.90
2019-05-15T19:31:26.973Z,48.90
2019-05-15T19:33:53.855Z,48.30
2019-05-15T19:36:23.487Z,48.80
2019-05-15T19:38:54.303Z,49.10
2019-05-15T19:41:24.087Z,48.90
2019-05-15T19:43:53.922Z,48.60
2019-05-15T19:46:23.732Z,48.80
2019-05-15T19:48:53.603Z,48.50
2019-05-15T19:51:24.448Z,47.90
2019-05-15T19:53:54.439Z,47.80
2019-05-15T19:56:24.311Z,48.70
2019-05-15T19:58:54.161Z,49.00
2019-05-15T20:01:23.862Z,49.00
2019-05-15T20:03:53.846Z,49.00
2019-05-15T20:06:23.856Z,48.80
2019-05-15T20:08:54.027Z,48.50
2019-05-15T20:11:23.941Z,48.00
2019-05-15T20:13:53.804Z,48.20
2019-05-15T20:16:23.656Z,48.60
2019-05-15T20:18:58.069Z,48.90
2019-05-15T20:21:29.631Z,48.20
2019-05-15T20:24:00.597Z,48.80
2019-05-15T20:26:30.567Z,48.50
2019-05-15T20:29:01.556Z,48.70
2019-05-15T20:31:31.468Z,48.90
2019-05-15T20:34:05.822Z,48.90
2019-05-15T20:36:32.942Z,49.40
2019-05-15T20:39:03.840Z,49.50
2019-05-15T20:41:34.511Z,49.00
2019-05-15T20:44:04.467Z,49.40
2019-05-15T20:46:34.310Z,49.50
2019-05-15T20:49:04.452Z,49.30
2019-05-15T20:51:35.970Z,48.70
2019-05-15T20:54:08.257Z,48.70
2019-05-15T20:56:38.437Z,48.80
2019-05-15T20:59:09.552Z,48.80
2019-05-15T21:01:39.465Z,48.80
2019-05-15T21:04:19.333Z,47.90
2019-05-15T21:06:41.005Z,48.20
2019-05-15T21:09:11.180Z,48.40
2019-05-15T21:11:41.101Z,48.60
2019-05-15T21:14:10.934Z,48.60
2019-05-15T21:16:41.800Z,48.90
2019-05-15T21:19:13.703Z,49.20
2019-05-15T21:21:43.632Z,49.10
2019-05-15T21:24:13.824Z,48.60
2019-05-15T21:26:43.727Z,48.60
2019-05-15T21:29:13.541Z,47.80
2019-05-15T21:31:43.371Z,48.40
2019-05-15T21:34:13.252Z,48.60
2019-05-15T21:36:43.086Z,49.20
2019-05-15T21:39:12.921Z,48.40
2019-05-15T21:41:45.157Z,48.50
2019-05-15T21:44:15.319Z,48.40
2019-05-15T21:46:45.148Z,48.80
2019-05-15T21:49:14.954Z,48.20
2019-05-15T21:51:44.716Z,48.00
2019-05-15T21:54:14.570Z,47.70
2019-05-15T21:56:44.712Z,47.40
2019-05-15T21:59:14.423Z,47.90
2019-05-15T22:01:48.167Z,48.20
2019-05-15T22:04:16.891Z,48.20
2019-05-15T22:06:49.003Z,49.30
2019-05-15T22:09:19.899Z,48.90
2019-05-15T22:11:50.078Z,48.60
2019-05-15T22:14:20.864Z,48.40
2019-05-15T22:16:50.591Z,48.50
2019-05-15T22:19:20.874Z,47.80
2019-05-15T22:21:50.942Z,47.60
2019-05-15T22:24:20.759Z,47.70
2019-05-15T22:26:51.202Z,48.00
2019-05-15T22:29:21.111Z,47.80
2019-05-15T22:31:51.023Z,48.20
2019-05-15T22:34:20.925Z,48.30
2019-05-15T22:36:51.033Z,48.30
2019-05-15T22:39:21.223Z,48.30
2019-05-15T22:41:51.031Z,48.40
2019-05-15T22:44:20.639Z,48.90
2019-05-15T22:46:50.471Z,48.90
2019-05-15T22:49:20.248Z,48.80
2019-05-15T22:51:50.050Z,48.80
2019-05-15T22:54:20.517Z,49.20
2019-05-15T22:56:50.600Z,49.30
2019-05-15T22:59:20.596Z,49.90
2019-05-15T23:01:50.455Z,49.80
2019-05-15T23:04:20.383Z,49.50
2019-05-15T23:06:50.223Z,49.60
2019-05-15T23:09:20.139Z,49.50
2019-05-15T23:11:50.042Z,49.40
2019-05-15T23:14:19.811Z,49.50
2019-05-15T23:16:49.577Z,49.60
2019-05-15T23:19:19.497Z,49.60
2019-05-15T23:21:50.307Z,49.20
2019-05-15T23:24:20.105Z,50.00
2019-05-15T23:26:49.826Z,50.20
2019-05-15T23:29:19.559Z,50.20
2019-05-15T23:31:49.219Z,50.00
2019-05-15T23:34:19.000Z,49.60
2019-05-15T23:36:48.851Z,49.20
2019-05-15T23:39:18.757Z,49.70
2019-05-15T23:41:48.572Z,50.00
2019-05-15T23:44:18.469Z,50.00
2019-05-15T23:46:48.780Z,49.30
2019-05-15T23:49:19.896Z,49.70
2019-05-15T23:51:49.847Z,49.50
2019-05-15T23:54:19.638Z,49.00
2019-05-15T23:56:49.477Z,49.60
2019-05-15T23:59:19.283Z,49.80
